createdAt,value
2022-08-18T00:01:44.134Z,21.52
2022-08-18T00:04:25.186Z,21.42
2022-08-18T00:06:58.662Z,21.37
2022-08-18T00:09:30.136Z,21.33
2022-08-18T00:11:58.911Z,21.26
2022-08-18T00:14:25.577Z,21.25
2022-08-18T00:16:54.053Z,21.24
2022-08-18T00:19:27.874Z,21.20
2022-08-18T00:22:14.514Z,21.18
2022-08-18T00:24:47.744Z,21.21
2022-08-18T00:27:29.168Z,21.23
2022-08-18T00:30:01.187Z,21.22
2022-08-18T00:32:34.271Z,21.20
2022-08-18T00:35:09.054Z,21.13
2022-08-18T00:37:36.433Z,21.08
2022-08-18T00:40:04.488Z,21.01
2022-08-18T00:42:31.937Z,20.98
2022-08-18T00:45:04.334Z,21.00
2022-08-18T00:47:37.073Z,21.02
2022-08-18T00:50:15.456Z,21.06
2022-08-18T00:52:47.558Z,21.00
2022-08-18T00:55:17.963Z,20.96
2022-08-18T00:57:44.595Z,20.91
2022-08-18T01:00:13.333Z,20.88
2022-08-18T01:02:44.627Z,20.91
2022-08-18T01:05:19.090Z,20.88
2022-08-18T01:07:48.690Z,20.85
2022-08-18T01:10:20.209Z,20.82
2022-08-18T01:12:50.246Z,20.84
2022-08-18T01:15:28.731Z,20.83
2022-08-18T01:18:17.430Z,20.80
2022-08-18T01:21:24.142Z,20.78
2022-08-18T01:23:53.596Z,20.74
2022-08-18T01:26:22.761Z,20.69
2022-08-18T01:28:49.727Z,20.62
2022-08-18T01:31:38.167Z,20.58
2022-08-18T01:34:07.485Z,20.56
2022-08-18T01:36:37.984Z,20.53
2022-08-18T01:39:07.267Z,20.54
2022-08-18T01:41:34.106Z,20.51
2022-08-18T01:44:02.328Z,20.43
2022-08-18T01:46:33.753Z,20.36
2022-08-18T01:49:01.989Z,20.34
2022-08-18T01:51:38.131Z,20.34
2022-08-18T01:54:08.417Z,20.37
2022-08-18T01:56:36.781Z,20.39
2022-08-18T01:59:04.310Z,20.40
2022-08-18T02:01:35.311Z,20.40
2022-08-18T02:04:31.598Z,20.35
2022-08-18T02:06:53.997Z,20.31
2022-08-18T02:09:24.221Z,20.29
2022-08-18T02:11:53.022Z,20.27
2022-08-18T02:14:27.105Z,20.21
2022-08-18T02:17:01.400Z,20.16
2022-08-18T02:19:32.294Z,20.11
2022-08-18T02:21:58.816Z,20.10
2022-08-18T02:24:25.342Z,20.10
2022-08-18T02:26:51.871Z,20.03
2022-08-18T02:29:18.433Z,20.02
2022-08-18T02:31:44.969Z,20.01
2022-08-18T02:34:11.580Z,19.98
2022-08-18T02:36:38.117Z,19.94
2022-08-18T02:39:04.677Z,19.94
2022-08-18T02:41:31.453Z,19.92
2022-08-18T02:43:58.815Z,19.90
2022-08-18T02:46:29.915Z,19.92
2022-08-18T02:48:58.814Z,19.89
2022-08-18T02:51:25.896Z,19.85
2022-08-18T02:53:53.887Z,19.82
2022-08-18T02:56:40.551Z,19.72
2022-08-18T02:59:11.786Z,19.51
2022-08-18T03:01:42.423Z,19.42
2022-08-18T03:04:11.111Z,19.41
2022-08-18T03:06:39.347Z,19.48
2022-08-18T03:09:07.960Z,19.52
2022-08-18T03:11:35.421Z,19.51
2022-08-18T03:14:02.369Z,19.54
2022-08-18T03:16:32.942Z,19.59
2022-08-18T03:19:01.844Z,19.63
2022-08-18T03:21:31.117Z,19.61
2022-08-18T03:24:00.907Z,19.55
2022-08-18T03:26:30.226Z,19.49
2022-08-18T03:29:00.057Z,19.46
2022-08-18T03:31:29.941Z,19.40
2022-08-18T03:33:59.564Z,19.35
2022-08-18T03:36:30.701Z,19.33
2022-08-18T03:38:58.105Z,19.37
2022-08-18T03:41:56.811Z,19.39
2022-08-18T03:44:15.497Z,19.42
2022-08-18T03:46:44.795Z,19.45
2022-08-18T03:49:12.582Z,19.40
2022-08-18T03:51:43.641Z,19.36
2022-08-18T03:54:13.273Z,19.35
2022-08-18T03:56:41.361Z,19.34
2022-08-18T03:59:23.062Z,19.34
2022-08-18T04:01:51.440Z,19.30
2022-08-18T04:04:21.730Z,19.26
2022-08-18T04:06:53.941Z,19.26
2022-08-18T04:09:21.818Z,19.23
2022-08-18T04:11:48.993Z,19.17
2022-08-18T04:14:19.325Z,19.09
2022-08-18T04:16:46.322Z,19.05
2022-08-18T04:19:13.832Z,19.09
2022-08-18T04:21:42.405Z,19.16
2022-08-18T04:24:11.661Z,19.24
2022-08-18T04:26:45.054Z,19.28
2022-08-18T04:29:13.974Z,19.30
2022-08-18T04:31:41.178Z,19.32
2022-08-18T04:34:07.783Z,19.40
2022-08-18T04:36:36.225Z,19.48
2022-08-18T04:39:05.677Z,19.53
2022-08-18T04:41:32.310Z,19.56
2022-08-18T04:44:01.564Z,19.58
2022-08-18T04:46:29.041Z,19.59
2022-08-18T04:48:59.238Z,19.59
2022-08-18T04:52:22.498Z,19.60
2022-08-18T04:54:16.215Z,19.65
2022-08-18T04:56:43.609Z,19.70
2022-08-18T04:59:14.355Z,19.75
2022-08-18T05:01:47.810Z,19.84
2022-08-18T05:04:16.375Z,19.88
2022-08-18T05:06:44.631Z,19.95
2022-08-18T05:09:16.530Z,20.01
2022-08-18T05:11:44.653Z,20.06
2022-08-18T05:14:12.142Z,20.09
2022-08-18T05:16:48.205Z,20.12
2022-08-18T05:19:19.898Z,20.15
2022-08-18T05:21:52.332Z,20.18
2022-08-18T05:24:21.524Z,20.21
2022-08-18T05:26:49.231Z,20.23
2022-08-18T05:29:18.991Z,20.23
2022-08-18T05:31:47.264Z,20.26
2022-08-18T05:34:14.370Z,20.28
2022-08-18T05:36:46.939Z,20.31
2022-08-18T05:39:19.519Z,20.32
2022-08-18T05:41:56.903Z,20.35
2022-08-18T05:44:29.739Z,20.40
2022-08-18T05:47:11.080Z,20.44
2022-08-18T05:49:38.682Z,20.48
2022-08-18T05:52:15.223Z,20.51
2022-08-18T05:55:07.194Z,20.55
2022-08-18T05:57:45.311Z,20.61
2022-08-18T06:00:15.506Z,20.65
2022-08-18T06:03:01.397Z,20.68
2022-08-18T06:05:53.525Z,20.72
2022-08-18T06:08:24.934Z,20.75
2022-08-18T06:10:51.567Z,20.79
2022-08-18T06:13:20.246Z,20.86
2022-08-18T06:16:09.434Z,20.94
2022-08-18T06:18:45.006Z,21.02
2022-08-18T06:21:38.756Z,21.08
2022-08-18T06:24:05.765Z,21.12
2022-08-18T06:27:20.435Z,21.14
2022-08-18T06:30:04.930Z,21.19
2022-08-18T06:33:01.888Z,21.21
2022-08-18T06:35:56.771Z,21.25
2022-08-18T06:38:47.402Z,21.28
2022-08-18T06:41:40.486Z,21.28
2022-08-18T06:44:21.103Z,21.27
2022-08-18T06:47:26.292Z,21.30
2022-08-18T06:50:18.187Z,21.35
2022-08-18T06:52:54.690Z,21.37
2022-08-18T06:55:36.299Z,21.40
2022-08-18T06:58:07.201Z,21.42
2022-08-18T07:00:36.640Z,21.46
2022-08-18T07:03:13.355Z,21.51
2022-08-18T07:06:02.253Z,21.55
2022-08-18T07:08:38.719Z,21.61
2022-08-18T07:11:17.337Z,21.67
2022-08-18T07:13:46.877Z,21.73
2022-08-18T07:16:54.546Z,21.80
2022-08-18T07:19:23.035Z,21.89
2022-08-18T07:22:04.174Z,21.98
2022-08-18T07:24:34.708Z,22.03
2022-08-18T07:27:07.485Z,22.13
2022-08-18T07:29:59.121Z,22.24
2022-08-18T07:32:37.758Z,22.33
2022-08-18T07:35:08.772Z,22.42
2022-08-18T07:37:42.963Z,22.46
2022-08-18T07:40:35.200Z,22.50
2022-08-18T07:43:08.601Z,22.55
2022-08-18T07:45:44.471Z,22.63
2022-08-18T07:48:38.103Z,22.73
2022-08-18T07:51:18.875Z,22.82
2022-08-18T07:54:13.255Z,22.91
2022-08-18T07:57:11.006Z,23.01
2022-08-18T07:59:47.309Z,23.14
2022-08-18T08:02:26.891Z,23.27
2022-08-18T08:05:20.305Z,23.42
2022-08-18T08:07:56.734Z,23.57
2022-08-18T08:10:38.949Z,23.69
2022-08-18T08:13:51.790Z,23.80
2022-08-18T08:16:40.683Z,23.91
2022-08-18T08:19:11.261Z,23.99
2022-08-18T08:21:53.029Z,24.11
2022-08-18T08:24:40.535Z,24.26
2022-08-18T08:27:21.418Z,24.52
2022-08-18T08:30:03.095Z,24.67
2022-08-18T08:32:37.138Z,24.74
2022-08-18T08:35:47.411Z,24.77
2022-08-18T08:38:42.669Z,24.80
2022-08-18T08:41:22.437Z,24.81
2022-08-18T08:44:15.650Z,24.84
2022-08-18T08:46:52.754Z,24.87
2022-08-18T08:49:30.583Z,24.92
2022-08-18T08:52:03.487Z,24.98
2022-08-18T08:54:35.486Z,25.02
2022-08-18T08:57:04.294Z,25.08
2022-08-18T08:59:30.962Z,25.14
2022-08-18T09:02:26.994Z,25.18
2022-08-18T09:05:13.430Z,25.28
2022-08-18T09:08:15.162Z,25.35
2022-08-18T09:11:06.302Z,25.44
2022-08-18T09:13:42.068Z,25.55
2022-08-18T09:16:46.462Z,25.61
2022-08-18T09:19:59.296Z,25.68
2022-08-18T09:22:38.930Z,25.78
2022-08-18T09:25:39.351Z,25.84
2022-08-18T09:28:13.509Z,25.89
2022-08-18T09:30:47.668Z,25.96
2022-08-18T09:33:48.439Z,26.02
2022-08-18T09:36:36.521Z,26.10
2022-08-18T09:39:35.304Z,26.19
2022-08-18T09:42:11.712Z,26.32
2022-08-18T09:44:41.071Z,26.45
2022-08-18T09:47:10.219Z,26.57
2022-08-18T09:49:51.242Z,26.69
2022-08-18T09:52:20.856Z,26.85
2022-08-18T09:55:18.054Z,27.02
2022-08-18T09:57:46.687Z,27.27
2022-08-18T10:00:30.483Z,27.57
2022-08-18T10:03:05.493Z,27.92
2022-08-18T10:05:34.854Z,28.22
2022-08-18T10:08:14.670Z,28.44
2022-08-18T10:11:00.755Z,28.52
2022-08-18T10:13:50.949Z,28.49
2022-08-18T10:16:38.253Z,28.45
2022-08-18T10:19:33.965Z,28.37
2022-08-18T10:22:09.386Z,28.22
2022-08-18T10:24:53.882Z,28.10
2022-08-18T10:27:42.853Z,28.08
2022-08-18T10:30:57.515Z,28.09
2022-08-18T10:33:58.341Z,28.13
2022-08-18T10:36:40.115Z,28.12
2022-08-18T10:39:13.237Z,28.14
2022-08-18T10:41:54.283Z,28.17
2022-08-18T10:44:29.133Z,28.18
2022-08-18T10:46:58.891Z,28.19
2022-08-18T10:49:28.875Z,28.23
2022-08-18T10:52:12.627Z,28.30
2022-08-18T10:55:03.566Z,28.39
2022-08-18T10:57:51.400Z,28.44
2022-08-18T11:00:20.378Z,28.46
2022-08-18T11:03:30.117Z,28.46
2022-08-18T11:05:46.652Z,28.49
2022-08-18T11:08:17.663Z,28.50
2022-08-18T11:11:06.335Z,28.51
2022-08-18T11:14:15.579Z,28.53
2022-08-18T11:16:51.992Z,28.59
2022-08-18T11:19:22.782Z,28.65
2022-08-18T11:21:52.022Z,28.70
2022-08-18T11:24:27.632Z,28.73
2022-08-18T11:27:02.994Z,28.73
2022-08-18T11:29:37.698Z,28.70
2022-08-18T11:32:11.151Z,28.76
2022-08-18T11:34:53.073Z,28.83
2022-08-18T11:37:48.701Z,28.93
2022-08-18T11:40:51.997Z,29.08
2022-08-18T11:43:21.589Z,29.20
2022-08-18T11:46:29.922Z,29.16
2022-08-18T11:48:58.286Z,29.14
2022-08-18T11:51:32.485Z,29.14
2022-08-18T11:54:00.860Z,29.18
2022-08-18T11:56:35.718Z,29.21
2022-08-18T11:59:05.802Z,29.21
2022-08-18T12:01:41.875Z,29.21
2022-08-18T12:04:37.581Z,29.21
2022-08-18T12:07:10.516Z,29.28
2022-08-18T12:10:18.433Z,29.34
2022-08-18T12:12:35.864Z,29.40
2022-08-18T12:15:22.712Z,29.41
2022-08-18T12:20:39.345Z,29.39
2022-08-18T12:23:05.917Z,29.35
2022-08-18T12:25:32.460Z,29.32
2022-08-18T12:27:58.974Z,29.31
2022-08-18T12:30:26.198Z,29.31
2022-08-18T12:32:55.836Z,29.26
2022-08-18T12:35:23.134Z,29.24
2022-08-18T12:38:13.776Z,29.21
2022-08-18T12:40:38.169Z,29.13
2022-08-18T12:43:05.909Z,29.07
2022-08-18T12:45:32.838Z,29.04
2022-08-18T12:48:04.000Z,29.04
2022-08-18T12:50:35.009Z,29.08
2022-08-18T12:53:05.050Z,29.11
2022-08-18T12:55:37.587Z,29.20
2022-08-18T12:58:10.200Z,29.27
2022-08-18T13:00:37.478Z,29.30
2022-08-18T13:03:04.067Z,29.35
2022-08-18T13:05:30.709Z,29.33
2022-08-18T13:08:04.305Z,29.24
2022-08-18T13:10:46.013Z,29.15
2022-08-18T13:13:18.882Z,29.15
2022-08-18T13:15:57.792Z,29.19
2022-08-18T13:18:29.000Z,29.21
2022-08-18T13:20:57.707Z,29.17
2022-08-18T13:23:27.266Z,29.11
2022-08-18T13:25:59.342Z,29.00
2022-08-18T13:28:35.640Z,28.92
2022-08-18T13:31:06.183Z,28.87
2022-08-18T13:33:34.810Z,28.81
2022-08-18T13:36:22.562Z,28.74
2022-08-18T13:38:52.332Z,28.65
2022-08-18T13:43:51.397Z,28.54
2022-08-18T13:46:24.389Z,28.45
2022-08-18T13:49:01.330Z,28.38
2022-08-18T13:51:28.638Z,28.29
2022-08-18T13:54:17.887Z,28.22
2022-08-18T13:56:42.715Z,28.22
2022-08-18T13:59:18.561Z,28.20
2022-08-18T14:01:51.840Z,28.13
2022-08-18T14:04:21.095Z,28.05
2022-08-18T14:06:57.903Z,28.00
2022-08-18T14:09:36.603Z,27.88
2022-08-18T14:12:15.510Z,27.79
2022-08-18T14:14:49.339Z,27.65
2022-08-18T14:17:18.837Z,27.60
2022-08-18T14:20:04.788Z,27.51
2022-08-18T14:22:55.907Z,27.45
2022-08-18T14:25:41.252Z,27.29
2022-08-18T14:28:09.302Z,27.18
2022-08-18T14:30:39.385Z,27.15
2022-08-18T14:33:07.991Z,27.12
2022-08-18T14:36:05.779Z,27.13
2022-08-18T14:38:24.964Z,27.13
2022-08-18T14:40:51.902Z,27.10
2022-08-18T14:43:24.982Z,27.04
2022-08-18T14:45:58.076Z,26.97
2022-08-18T14:48:27.377Z,26.93
2022-08-18T14:50:56.374Z,26.87
2022-08-18T14:53:29.814Z,26.81
2022-08-18T14:55:59.265Z,26.80
2022-08-18T14:58:28.809Z,26.74
2022-08-18T15:00:58.041Z,26.70
2022-08-18T15:03:28.267Z,26.67
2022-08-18T15:06:00.374Z,26.63
2022-08-18T15:08:27.066Z,26.59
2022-08-18T15:10:58.630Z,26.55
2022-08-18T15:13:27.671Z,26.47
2022-08-18T15:15:55.866Z,26.37
2022-08-18T15:18:28.727Z,26.26
2022-08-18T15:21:34.744Z,26.18
2022-08-18T15:24:20.044Z,26.14
2022-08-18T15:26:51.855Z,26.12
2022-08-18T15:29:27.814Z,26.06
2022-08-18T15:32:01.978Z,26.03
2022-08-18T15:34:31.645Z,25.96
2022-08-18T15:37:09.758Z,25.89
2022-08-18T15:39:36.964Z,25.84
2022-08-18T15:42:10.148Z,25.84
2022-08-18T15:44:37.185Z,25.79
2022-08-18T15:47:05.977Z,25.76
2022-08-18T15:49:36.116Z,25.75
2022-08-18T15:52:03.227Z,25.71
2022-08-18T15:54:29.756Z,25.66
2022-08-18T15:56:58.138Z,25.64
2022-08-18T15:59:33.035Z,25.56
2022-08-18T16:02:06.665Z,25.51
2022-08-18T16:04:41.008Z,25.45
2022-08-18T16:07:07.757Z,25.42
2022-08-18T16:09:38.930Z,25.35
2022-08-18T16:12:09.055Z,25.29
2022-08-18T16:14:41.452Z,25.27
2022-08-18T16:17:09.373Z,25.23
2022-08-18T16:19:44.928Z,25.17
2022-08-18T16:22:11.781Z,25.10
2022-08-18T16:24:38.729Z,25.00
2022-08-18T16:27:06.657Z,24.95
2022-08-18T16:29:33.542Z,24.90
2022-08-18T16:32:00.108Z,24.88
2022-08-18T16:34:30.993Z,24.88
2022-08-18T16:36:57.802Z,24.85
2022-08-18T16:39:24.293Z,24.83
2022-08-18T16:41:51.415Z,24.80
2022-08-18T16:44:18.338Z,24.72
2022-08-18T16:46:45.006Z,24.67
2022-08-18T16:49:11.751Z,24.61
2022-08-18T16:51:38.288Z,24.60
2022-08-18T16:54:05.468Z,24.62
2022-08-18T16:56:35.719Z,24.61
2022-08-18T16:59:21.249Z,24.55
2022-08-18T17:02:06.802Z,24.48
2022-08-18T17:04:33.993Z,24.36
2022-08-18T17:07:04.911Z,24.30
2022-08-18T17:09:33.220Z,24.26
2022-08-18T17:12:00.773Z,24.21
2022-08-18T17:14:30.032Z,24.18
2022-08-18T17:17:00.847Z,24.13
2022-08-18T17:19:33.711Z,24.06
2022-08-18T17:22:02.451Z,23.99
2022-08-18T17:24:31.885Z,23.94
2022-08-18T17:27:37.309Z,23.92
2022-08-18T17:30:17.493Z,23.89
2022-08-18T17:32:55.670Z,23.87
2022-08-18T17:35:28.948Z,23.84
2022-08-18T17:38:08.055Z,23.82
2022-08-18T17:40:48.003Z,23.76
2022-08-18T17:43:25.847Z,23.65
2022-08-18T17:46:04.818Z,23.61
2022-08-18T17:48:55.564Z,23.56
2022-08-18T17:51:43.553Z,23.53
2022-08-18T17:54:46.071Z,23.48
2022-08-18T17:57:36.059Z,23.49
2022-08-18T18:00:12.092Z,23.48
2022-08-18T18:02:41.235Z,23.38
2022-08-18T18:05:11.345Z,23.30
2022-08-18T18:07:59.812Z,23.24
2022-08-18T18:13:32.624Z,23.12
2022-08-18T18:16:21.749Z,23.05
2022-08-18T18:19:01.184Z,22.99
2022-08-18T18:21:55.341Z,22.96
2022-08-18T18:24:17.069Z,22.95
2022-08-18T18:26:52.256Z,22.92
2022-08-18T18:29:33.335Z,22.84
2022-08-18T18:32:27.388Z,22.78
2022-08-18T18:35:07.961Z,22.71
2022-08-18T18:37:47.307Z,22.70
2022-08-18T18:40:29.577Z,22.68
2022-08-18T18:42:58.169Z,22.67
2022-08-18T18:45:29.098Z,22.64
2022-08-18T18:47:59.878Z,22.58
2022-08-18T18:50:26.638Z,22.52
2022-08-18T18:53:13.303Z,22.47
2022-08-18T18:56:14.364Z,22.43
2022-08-18T18:58:58.461Z,22.38
2022-08-18T19:01:38.521Z,22.35
2022-08-18T19:04:19.782Z,22.34
2022-08-18T19:06:53.091Z,22.33
2022-08-18T19:09:39.821Z,22.35
2022-08-18T19:12:20.686Z,22.36
2022-08-18T19:15:03.457Z,22.37
2022-08-18T19:17:35.709Z,22.36
2022-08-18T19:20:13.809Z,22.32
2022-08-18T19:23:01.148Z,22.28
2022-08-18T19:25:30.115Z,22.27
2022-08-18T19:28:02.841Z,22.24
2022-08-18T19:30:33.066Z,22.22
2022-08-18T19:33:04.542Z,22.20
2022-08-18T19:35:50.200Z,22.16
2022-08-18T19:38:56.117Z,22.12
2022-08-18T19:41:33.977Z,22.11
2022-08-18T19:44:24.717Z,22.07
2022-08-18T19:46:54.467Z,22.06
2022-08-18T19:49:49.306Z,22.04
2022-08-18T19:52:45.509Z,21.99
2022-08-18T19:55:28.193Z,21.96
2022-08-18T19:58:14.497Z,21.92
2022-08-18T20:00:56.697Z,21.87
2022-08-18T20:03:31.972Z,21.80
2022-08-18T20:06:17.811Z,21.77
2022-08-18T20:08:58.208Z,21.75
2022-08-18T20:12:01.785Z,21.68
2022-08-18T20:14:35.717Z,21.67
2022-08-18T20:17:25.598Z,21.64
2022-08-18T20:19:55.888Z,21.62
2022-08-18T20:22:24.820Z,21.62
2022-08-18T20:25:04.578Z,21.61
2022-08-18T20:27:40.091Z,21.58
2022-08-18T20:30:31.881Z,21.52
2022-08-18T20:33:25.775Z,21.51
2022-08-18T20:35:58.677Z,21.51
2022-08-18T20:38:40.857Z,21.48
2022-08-18T20:41:43.987Z,21.49
2022-08-18T20:44:48.493Z,21.45
2022-08-18T20:47:53.146Z,21.46
2022-08-18T20:50:47.450Z,21.46
2022-08-18T20:53:32.940Z,21.44
2022-08-18T20:56:32.467Z,21.43
2022-08-18T20:59:20.229Z,21.44
2022-08-18T21:02:05.957Z,21.39
2022-08-18T21:04:48.002Z,21.40
2022-08-18T21:07:36.214Z,21.38
2022-08-18T21:10:23.399Z,21.36
2022-08-18T21:12:59.547Z,21.35
2022-08-18T21:15:36.194Z,21.33
2022-08-18T21:18:04.932Z,21.30
2022-08-18T21:20:33.114Z,21.29
2022-08-18T21:23:09.624Z,21.29
2022-08-18T21:25:40.336Z,21.27
2022-08-18T21:28:07.106Z,21.28
2022-08-18T21:30:34.348Z,21.26
2022-08-18T21:33:02.089Z,21.23
2022-08-18T21:35:34.500Z,21.17
2022-08-18T21:38:10.870Z,21.19
2022-08-18T21:40:41.185Z,21.17
2022-08-18T21:43:12.733Z,21.12
2022-08-18T21:45:59.037Z,21.10
2022-08-18T21:48:27.916Z,21.06
2022-08-18T21:50:58.850Z,21.02
2022-08-18T21:53:38.333Z,20.99
2022-08-18T21:56:05.005Z,20.97
2022-08-18T21:58:34.533Z,20.97
2022-08-18T22:01:10.338Z,21.00
2022-08-18T22:03:53.409Z,20.98
2022-08-18T22:06:28.500Z,20.98
2022-08-18T22:09:26.006Z,20.98
2022-08-18T22:12:36.016Z,20.95
2022-08-18T22:15:07.593Z,20.92
2022-08-18T22:18:00.359Z,20.89
2022-08-18T22:20:49.843Z,20.88
2022-08-18T22:23:34.957Z,20.88
2022-08-18T22:26:35.102Z,20.90
2022-08-18T22:29:27.975Z,20.93
2022-08-18T22:31:55.506Z,20.93
2022-08-18T22:34:27.785Z,20.92
2022-08-18T22:36:59.349Z,20.94
2022-08-18T22:39:51.067Z,20.93
2022-08-18T22:42:20.726Z,20.91
2022-08-18T22:44:47.577Z,20.88
2022-08-18T22:47:14.295Z,20.83
2022-08-18T22:49:41.364Z,20.80
2022-08-18T22:52:19.329Z,20.80
2022-08-18T22:54:46.477Z,20.81
2022-08-18T22:57:17.566Z,20.89
2022-08-18T22:59:48.594Z,20.93
2022-08-18T23:02:22.184Z,20.93
2022-08-18T23:04:53.425Z,20.87
2022-08-18T23:07:22.946Z,20.81
2022-08-18T23:09:49.601Z,20.77
2022-08-18T23:12:16.315Z,20.75
2022-08-18T23:14:46.733Z,20.75
2022-08-18T23:17:14.374Z,20.73
2022-08-18T23:19:42.577Z,20.73
2022-08-18T23:22:10.755Z,20.76
2022-08-18T23:24:38.468Z,20.76
2022-08-18T23:27:06.265Z,20.76
2022-08-18T23:29:36.755Z,20.76
2022-08-18T23:32:07.869Z,20.76
2022-08-18T23:34:35.592Z,20.73
2022-08-18T23:37:03.620Z,20.70
2022-08-18T23:39:32.147Z,20.69
2022-08-18T23:42:00.544Z,20.71
2022-08-18T23:44:28.206Z,20.75
2022-08-18T23:46:57.965Z,20.75
2022-08-18T23:49:26.304Z,20.79
2022-08-18T23:51:56.006Z,20.81
2022-08-18T23:54:27.144Z,20.81
2022-08-18T23:56:54.046Z,20.80
2022-08-18T23:59:22.677Z,20.79
